sensor_id;sensor_type;location;lat;lon;timestamp;temperature;humidity
13808;DHT22;40769;51.512;5.494;2022-12-29T00:02:15;13.90;99.90
13808;DHT22;40769;51.512;5.494;2022-12-29T00:04:41;13.90;99.90
13808;DHT22;40769;51.512;5.494;2022-12-29T00:07:07;14.00;99.90
13808;DHT22;40769;51.512;5.494;2022-12-29T00:09:33;13.90;99.90
13808;DHT22;40769;51.512;5.494;2022-12-29T00:12:00;13.90;99.90
13808;DHT22;40769;51.512;5.494;2022-12-29T00:14:26;13.80;99.90
13808;DHT22;40769;51.512;5.494;2022-12-29T00:17:10;13.90;99.90
13808;DHT22;40769;51.512;5.494;2022-12-29T00:19:36;13.80;99.90
13808;DHT22;40769;51.512;5.494;2022-12-29T00:22:20;13.70;99.90
13808;DHT22;40769;51.512;5.494;2022-12-29T00:25:07;12.50;99.90
13808;DHT22;40769;51.512;5.494;2022-12-29T00:27:51;13.50;99.90
13808;DHT22;40769;51.512;5.494;2022-12-29T00:30:36;13.40;99.90
13808;DHT22;40769;51.512;5.494;2022-12-29T00:33:22;13.30;99.90
13808;DHT22;40769;51.512;5.494;2022-12-29T00:38:40;13.20;99.90
13808;DHT22;40769;51.512;5.494;2022-12-29T00:41:26;13.10;99.90
13808;DHT22;40769;51.512;5.494;2022-12-29T00:44:11;13.10;99.90
13808;DHT22;40769;51.512;5.494;2022-12-29T00:46:41;13.00;99.90
13808;DHT22;40769;51.512;5.494;2022-12-29T00:49:09;13.00;99.90
13808;DHT22;40769;51.512;5.494;2022-12-29T00:51:55;13.00;99.90
13808;DHT22;40769;51.512;5.494;2022-12-29T00:54:21;13.10;99.90
13808;DHT22;40769;51.512;5.494;2022-12-29T00:56:48;13.20;99.90
13808;DHT22;40769;51.512;5.494;2022-12-29T00:59:14;13.10;99.90
13808;DHT22;40769;51.512;5.494;2022-12-29T01:01:40;13.10;99.90
13808;DHT22;40769;51.512;5.494;2022-12-29T01:04:06;13.20;99.90
13808;DHT22;40769;51.512;5.494;2022-12-29T01:06:33;13.20;99.90
13808;DHT22;40769;51.512;5.494;2022-12-29T01:08:59;13.20;99.90
13808;DHT22;40769;51.512;5.494;2022-12-29T01:11:43;13.30;99.90
13808;DHT22;40769;51.512;5.494;2022-12-29T01:14:08;13.30;99.90
13808;DHT22;40769;51.512;5.494;2022-12-29T01:16:34;13.30;99.90
13808;DHT22;40769;51.512;5.494;2022-12-29T01:19:01;13.40;99.90
13808;DHT22;40769;51.512;5.494;2022-12-29T01:21:27;13.40;99.90
13808;DHT22;40769;51.512;5.494;2022-12-29T01:23:53;13.40;99.90
13808;DHT22;40769;51.512;5.494;2022-12-29T01:26:18;13.40;99.90
13808;DHT22;40769;51.512;5.494;2022-12-29T01:28:45;13.50;99.90
13808;DHT22;40769;51.512;5.494;2022-12-29T01:31:13;13.50;99.90
13808;DHT22;40769;51.512;5.494;2022-12-29T01:33:39;13.60;99.90
13808;DHT22;40769;51.512;5.494;2022-12-29T01:36:07;13.50;99.90
13808;DHT22;40769;51.512;5.494;2022-12-29T01:38:33;13.60;99.90
13808;DHT22;40769;51.512;5.494;2022-12-29T01:40:59;13.60;99.90
13808;DHT22;40769;51.512;5.494;2022-12-29T01:43:59;13.60;99.90
13808;DHT22;40769;51.512;5.494;2022-12-29T01:46:36;13.70;99.90
13808;DHT22;40769;51.512;5.494;2022-12-29T01:49:22;13.70;99.90
13808;DHT22;40769;51.512;5.494;2022-12-29T01:51:53;13.70;99.90
13808;DHT22;40769;51.512;5.494;2022-12-29T01:54:22;13.70;99.90
13808;DHT22;40769;51.512;5.494;2022-12-29T01:56:51;13.70;99.90
13808;DHT22;40769;51.512;5.494;2022-12-29T01:59:22;13.80;99.90
13808;DHT22;40769;51.512;5.494;2022-12-29T02:01:50;13.80;99.90
13808;DHT22;40769;51.512;5.494;2022-12-29T02:04:16;13.90;99.90
13808;DHT22;40769;51.512;5.494;2022-12-29T02:06:47;13.90;99.90
13808;DHT22;40769;51.512;5.494;2022-12-29T02:09:15;13.90;99.90
13808;DHT22;40769;51.512;5.494;2022-12-29T02:11:40;13.90;99.90
13808;DHT22;40769;51.512;5.494;2022-12-29T02:14:10;13.90;99.90
13808;DHT22;40769;51.512;5.494;2022-12-29T02:35:25;14.00;99.90
13808;DHT22;40769;51.512;5.494;2022-12-29T02:40:50;14.10;99.90
13808;DHT22;40769;51.512;5.494;2022-12-29T02:46:01;14.00;99.90
13808;DHT22;40769;51.512;5.494;2022-12-29T02:48:32;14.00;99.90
13808;DHT22;40769;51.512;5.494;2022-12-29T02:53:43;14.00;99.90
13808;DHT22;40769;51.512;5.494;2022-12-29T02:56:28;14.00;99.90
13808;DHT22;40769;51.512;5.494;2022-12-29T02:58:54;14.00;99.90
13808;DHT22;40769;51.512;5.494;2022-12-29T03:01:22;14.00;99.90
13808;DHT22;40769;51.512;5.494;2022-12-29T03:11:58;14.00;99.90
13808;DHT22;40769;51.512;5.494;2022-12-29T03:14:39;14.00;99.90
13808;DHT22;40769;51.512;5.494;2022-12-29T03:17:36;14.00;99.90
13808;DHT22;40769;51.512;5.494;2022-12-29T03:20:07;14.00;99.90
13808;DHT22;40769;51.512;5.494;2022-12-29T03:22:36;13.90;99.90
13808;DHT22;40769;51.512;5.494;2022-12-29T03:25:10;13.80;99.90
13808;DHT22;40769;51.512;5.494;2022-12-29T03:27:41;13.80;99.90
13808;DHT22;40769;51.512;5.494;2022-12-29T03:30:07;13.80;99.90
13808;DHT22;40769;51.512;5.494;2022-12-29T03:33:07;13.80;99.90
13808;DHT22;40769;51.512;5.494;2022-12-29T03:35:37;13.80;99.90
13808;DHT22;40769;51.512;5.494;2022-12-29T03:38:37;13.80;99.90
13808;DHT22;40769;51.512;5.494;2022-12-29T03:41:09;13.80;99.90
13808;DHT22;40769;51.512;5.494;2022-12-29T03:43:36;13.70;99.90
13808;DHT22;40769;51.512;5.494;2022-12-29T03:46:01;13.60;99.90
13808;DHT22;40769;51.512;5.494;2022-12-29T03:48:27;13.60;99.90
13808;DHT22;40769;51.512;5.494;2022-12-29T03:50:53;13.60;99.90
13808;DHT22;40769;51.512;5.494;2022-12-29T03:53:18;13.50;99.90
13808;DHT22;40769;51.512;5.494;2022-12-29T03:55:44;13.40;99.90
13808;DHT22;40769;51.512;5.494;2022-12-29T03:58:10;13.40;99.90
13808;DHT22;40769;51.512;5.494;2022-12-29T04:00:35;13.30;99.90
13808;DHT22;40769;51.512;5.494;2022-12-29T04:03:01;13.30;99.90
13808;DHT22;40769;51.512;5.494;2022-12-29T04:05:27;13.20;99.90
13808;DHT22;40769;51.512;5.494;2022-12-29T04:07:52;13.20;99.90
13808;DHT22;40769;51.512;5.494;2022-12-29T04:10:18;13.20;99.90
13808;DHT22;40769;51.512;5.494;2022-12-29T04:12:44;13.20;99.90
13808;DHT22;40769;51.512;5.494;2022-12-29T04:15:11;13.20;99.90
13808;DHT22;40769;51.512;5.494;2022-12-29T04:17:37;13.10;99.90
13808;DHT22;40769;51.512;5.494;2022-12-29T04:20:03;13.00;99.90
13808;DHT22;40769;51.512;5.494;2022-12-29T04:22:48;13.00;99.90
13808;DHT22;40769;51.512;5.494;2022-12-29T04:25:13;12.90;99.90
13808;DHT22;40769;51.512;5.494;2022-12-29T04:27:39;12.80;99.90
13808;DHT22;40769;51.512;5.494;2022-12-29T04:30:05;12.70;99.90
13808;DHT22;40769;51.512;5.494;2022-12-29T04:32:31;12.60;99.90
13808;DHT22;40769;51.512;5.494;2022-12-29T04:34:56;12.50;99.90
13808;DHT22;40769;51.512;5.494;2022-12-29T04:37:22;12.50;99.90
13808;DHT22;40769;51.512;5.494;2022-12-29T04:39:48;12.50;99.90
13808;DHT22;40769;51.512;5.494;2022-12-29T04:42:13;12.50;99.90
13808;DHT22;40769;51.512;5.494;2022-12-29T04:44:39;12.50;99.90
13808;DHT22;40769;51.512;5.494;2022-12-29T04:47:04;12.50;99.90
13808;DHT22;40769;51.512;5.494;2022-12-29T04:49:30;12.50;99.90
13808;DHT22;40769;51.512;5.494;2022-12-29T04:51:55;12.50;99.90
13808;DHT22;40769;51.512;5.494;2022-12-29T04:54:21;12.60;99.90
13808;DHT22;40769;51.512;5.494;2022-12-29T04:56:47;12.40;99.90
13808;DHT22;40769;51.512;5.494;2022-12-29T04:59:14;12.40;99.90
13808;DHT22;40769;51.512;5.494;2022-12-29T05:01:40;12.30;99.90
13808;DHT22;40769;51.512;5.494;2022-12-29T05:04:05;12.30;99.90
13808;DHT22;40769;51.512;5.494;2022-12-29T05:06:31;12.20;99.90
13808;DHT22;40769;51.512;5.494;2022-12-29T05:08:57;12.30;99.90
13808;DHT22;40769;51.512;5.494;2022-12-29T05:11:22;12.30;99.90
13808;DHT22;40769;51.512;5.494;2022-12-29T05:13:48;12.30;99.90
13808;DHT22;40769;51.512;5.494;2022-12-29T05:16:13;12.30;99.90
13808;DHT22;40769;51.512;5.494;2022-12-29T05:18:39;12.30;99.90
13808;DHT22;40769;51.512;5.494;2022-12-29T05:21:05;12.30;99.90
13808;DHT22;40769;51.512;5.494;2022-12-29T05:23:30;12.30;99.90
13808;DHT22;40769;51.512;5.494;2022-12-29T05:25:56;12.20;99.90
13808;DHT22;40769;51.512;5.494;2022-12-29T05:28:21;12.20;99.90
13808;DHT22;40769;51.512;5.494;2022-12-29T05:30:51;12.10;99.90
13808;DHT22;40769;51.512;5.494;2022-12-29T05:33:20;12.20;99.90
13808;DHT22;40769;51.512;5.494;2022-12-29T05:35:46;12.10;99.90
13808;DHT22;40769;51.512;5.494;2022-12-29T05:38:11;12.10;99.90
13808;DHT22;40769;51.512;5.494;2022-12-29T05:40:38;12.20;99.90
13808;DHT22;40769;51.512;5.494;2022-12-29T05:43:04;12.20;99.90
13808;DHT22;40769;51.512;5.494;2022-12-29T05:45:30;12.30;99.90
13808;DHT22;40769;51.512;5.494;2022-12-29T05:47:55;12.30;99.90
13808;DHT22;40769;51.512;5.494;2022-12-29T05:50:21;12.40;99.90
13808;DHT22;40769;51.512;5.494;2022-12-29T05:52:46;12.40;99.90
13808;DHT22;40769;51.512;5.494;2022-12-29T05:55:12;12.40;99.90
13808;DHT22;40769;51.512;5.494;2022-12-29T05:57:38;12.50;99.90
13808;DHT22;40769;51.512;5.494;2022-12-29T06:00:05;12.50;99.90
13808;DHT22;40769;51.512;5.494;2022-12-29T06:02:30;12.50;99.90
13808;DHT22;40769;51.512;5.494;2022-12-29T06:04:56;12.60;99.90
13808;DHT22;40769;51.512;5.494;2022-12-29T06:07:22;12.60;99.90
13808;DHT22;40769;51.512;5.494;2022-12-29T06:09:47;12.60;99.90
13808;DHT22;40769;51.512;5.494;2022-12-29T06:12:13;12.70;99.90
13808;DHT22;40769;51.512;5.494;2022-12-29T06:14:39;12.70;99.90
13808;DHT22;40769;51.512;5.494;2022-12-29T06:17:04;12.80;99.90
13808;DHT22;40769;51.512;5.494;2022-12-29T06:19:30;12.80;99.90
13808;DHT22;40769;51.512;5.494;2022-12-29T06:21:55;12.70;99.90
13808;DHT22;40769;51.512;5.494;2022-12-29T06:24:21;12.90;99.90
13808;DHT22;40769;51.512;5.494;2022-12-29T06:26:47;12.90;99.90
13808;DHT22;40769;51.512;5.494;2022-12-29T06:29:13;12.90;99.90
13808;DHT22;40769;51.512;5.494;2022-12-29T06:31:42;12.90;99.90
13808;DHT22;40769;51.512;5.494;2022-12-29T06:34:08;12.90;99.90
13808;DHT22;40769;51.512;5.494;2022-12-29T06:36:34;13.00;99.90
13808;DHT22;40769;51.512;5.494;2022-12-29T06:39:00;12.90;99.90
13808;DHT22;40769;51.512;5.494;2022-12-29T06:41:25;13.00;99.90
13808;DHT22;40769;51.512;5.494;2022-12-29T06:43:51;13.00;99.90
13808;DHT22;40769;51.512;5.494;2022-12-29T06:46:17;13.00;99.90
13808;DHT22;40769;51.512;5.494;2022-12-29T06:48:42;13.00;99.90
13808;DHT22;40769;51.512;5.494;2022-12-29T06:51:08;12.90;99.90
13808;DHT22;40769;51.512;5.494;2022-12-29T06:53:34;13.00;99.90
13808;DHT22;40769;51.512;5.494;2022-12-29T06:55:59;12.90;99.90
13808;DHT22;40769;51.512;5.494;2022-12-29T06:58:25;12.90;99.90
13808;DHT22;40769;51.512;5.494;2022-12-29T07:00:51;12.80;99.90
13808;DHT22;40769;51.512;5.494;2022-12-29T07:03:16;12.80;99.90
13808;DHT22;40769;51.512;5.494;2022-12-29T07:05:42;12.80;99.90
13808;DHT22;40769;51.512;5.494;2022-12-29T07:08:08;12.90;99.90
13808;DHT22;40769;51.512;5.494;2022-12-29T07:10:34;12.80;99.90
13808;DHT22;40769;51.512;5.494;2022-12-29T07:12:59;12.80;99.90
13808;DHT22;40769;51.512;5.494;2022-12-29T07:15:25;12.80;99.90
13808;DHT22;40769;51.512;5.494;2022-12-29T07:17:51;12.80;99.90
13808;DHT22;40769;51.512;5.494;2022-12-29T07:20:17;12.90;99.90
13808;DHT22;40769;51.512;5.494;2022-12-29T07:22:43;12.90;99.90
13808;DHT22;40769;51.512;5.494;2022-12-29T07:25:08;12.90;99.90
13808;DHT22;40769;51.512;5.494;2022-12-29T07:27:34;12.90;99.90
13808;DHT22;40769;51.512;5.494;2022-12-29T07:30:00;12.90;99.90
13808;DHT22;40769;51.512;5.494;2022-12-29T07:32:25;12.80;99.90
13808;DHT22;40769;51.512;5.494;2022-12-29T07:34:51;12.90;99.90
13808;DHT22;40769;51.512;5.494;2022-12-29T07:37:17;12.90;99.90
13808;DHT22;40769;51.512;5.494;2022-12-29T07:39:43;12.90;99.90
13808;DHT22;40769;51.512;5.494;2022-12-29T07:42:09;13.00;99.90
13808;DHT22;40769;51.512;5.494;2022-12-29T07:44:34;13.00;99.90
13808;DHT22;40769;51.512;5.494;2022-12-29T07:47:02;13.00;99.90
13808;DHT22;40769;51.512;5.494;2022-12-29T07:49:27;13.00;99.90
13808;DHT22;40769;51.512;5.494;2022-12-29T07:51:53;13.00;99.90
13808;DHT22;40769;51.512;5.494;2022-12-29T07:54:18;13.00;99.90
13808;DHT22;40769;51.512;5.494;2022-12-29T07:56:44;13.00;99.90
13808;DHT22;40769;51.512;5.494;2022-12-29T07:59:10;13.20;99.90
13808;DHT22;40769;51.512;5.494;2022-12-29T08:01:38;13.10;99.90
13808;DHT22;40769;51.512;5.494;2022-12-29T08:04:04;13.00;99.90
13808;DHT22;40769;51.512;5.494;2022-12-29T08:06:30;13.10;99.90
13808;DHT22;40769;51.512;5.494;2022-12-29T08:08:56;13.30;99.90
13808;DHT22;40769;51.512;5.494;2022-12-29T08:11:22;13.20;99.90
13808;DHT22;40769;51.512;5.494;2022-12-29T08:13:48;13.20;99.90
13808;DHT22;40769;51.512;5.494;2022-12-29T08:16:13;13.20;99.90
13808;DHT22;40769;51.512;5.494;2022-12-29T08:18:39;13.10;99.90
13808;DHT22;40769;51.512;5.494;2022-12-29T08:21:05;13.10;99.90
13808;DHT22;40769;51.512;5.494;2022-12-29T08:23:31;13.10;99.90
13808;DHT22;40769;51.512;5.494;2022-12-29T08:26:02;13.10;99.90
13808;DHT22;40769;51.512;5.494;2022-12-29T08:28:28;13.10;99.90
13808;DHT22;40769;51.512;5.494;2022-12-29T08:30:54;13.10;99.90
13808;DHT22;40769;51.512;5.494;2022-12-29T08:33:22;13.20;99.90
13808;DHT22;40769;51.512;5.494;2022-12-29T08:35:47;13.20;99.90
13808;DHT22;40769;51.512;5.494;2022-12-29T08:38:13;13.20;99.90
13808;DHT22;40769;51.512;5.494;2022-12-29T08:40:39;13.20;99.90
13808;DHT22;40769;51.512;5.494;2022-12-29T08:43:04;13.20;99.90
13808;DHT22;40769;51.512;5.494;2022-12-29T08:45:31;13.30;99.90
13808;DHT22;40769;51.512;5.494;2022-12-29T08:47:56;13.30;99.90
13808;DHT22;40769;51.512;5.494;2022-12-29T08:50:22;12.50;99.90
13808;DHT22;40769;51.512;5.494;2022-12-29T08:52:48;13.40;99.90
13808;DHT22;40769;51.512;5.494;2022-12-29T08:55:13;13.40;99.90
13808;DHT22;40769;51.512;5.494;2022-12-29T08:57:39;13.50;99.90
13808;DHT22;40769;51.512;5.494;2022-12-29T09:00:05;13.60;99.90
13808;DHT22;40769;51.512;5.494;2022-12-29T09:02:31;13.50;99.90
13808;DHT22;40769;51.512;5.494;2022-12-29T09:04:59;13.70;99.90
13808;DHT22;40769;51.512;5.494;2022-12-29T09:07:26;13.60;99.90
13808;DHT22;40769;51.512;5.494;2022-12-29T09:09:52;13.60;99.90
13808;DHT22;40769;51.512;5.494;2022-12-29T09:12:17;13.60;99.90
13808;DHT22;40769;51.512;5.494;2022-12-29T09:14:43;13.60;99.90
13808;DHT22;40769;51.512;5.494;2022-12-29T09:17:10;13.80;99.90
13808;DHT22;40769;51.512;5.494;2022-12-29T09:19:54;13.70;99.90
13808;DHT22;40769;51.512;5.494;2022-12-29T09:22:20;13.70;99.90
13808;DHT22;40769;51.512;5.494;2022-12-29T09:24:46;13.70;99.90
13808;DHT22;40769;51.512;5.494;2022-12-29T09:27:11;13.70;99.90
13808;DHT22;40769;51.512;5.494;2022-12-29T09:29:38;13.70;99.90
13808;DHT22;40769;51.512;5.494;2022-12-29T09:32:04;13.60;99.90
13808;DHT22;40769;51.512;5.494;2022-12-29T09:34:29;13.60;99.90
13808;DHT22;40769;51.512;5.494;2022-12-29T09:36:55;13.50;99.90
13808;DHT22;40769;51.512;5.494;2022-12-29T09:39:22;13.50;99.90
13808;DHT22;40769;51.512;5.494;2022-12-29T09:44:23;13.40;99.90
13808;DHT22;40769;51.512;5.494;2022-12-29T09:46:53;13.30;99.90
13808;DHT22;40769;51.512;5.494;2022-12-29T09:52:32;13.30;99.90
13808;DHT22;40769;51.512;5.494;2022-12-29T09:55:13;13.10;99.90
13808;DHT22;40769;51.512;5.494;2022-12-29T09:57:56;13.20;99.90
13808;DHT22;40769;51.512;5.494;2022-12-29T10:00:36;13.20;99.90
13808;DHT22;40769;51.512;5.494;2022-12-29T10:03:15;13.20;99.90
13808;DHT22;40769;51.512;5.494;2022-12-29T10:08:39;13.10;99.90
13808;DHT22;40769;51.512;5.494;2022-12-29T10:14:52;13.10;99.90
13808;DHT22;40769;51.512;5.494;2022-12-29T10:17:12;13.60;99.90
13808;DHT22;40769;51.512;5.494;2022-12-29T10:24:53;12.70;99.90
13808;DHT22;40769;51.512;5.494;2022-12-29T10:27:20;12.70;99.90
13808;DHT22;40769;51.512;5.494;2022-12-29T10:29:54;12.60;99.90
13808;DHT22;40769;51.512;5.494;2022-12-29T10:32:37;12.40;99.90
13808;DHT22;40769;51.512;5.494;2022-12-29T10:35:41;12.40;99.90
13808;DHT22;40769;51.512;5.494;2022-12-29T10:41:13;12.20;99.90
13808;DHT22;40769;51.512;5.494;2022-12-29T10:43:46;12.20;99.90
13808;DHT22;40769;51.512;5.494;2022-12-29T10:46:16;12.20;99.90
13808;DHT22;40769;51.512;5.494;2022-12-29T10:48:42;12.20;99.90
13808;DHT22;40769;51.512;5.494;2022-12-29T10:51:11;12.10;99.90
13808;DHT22;40769;51.512;5.494;2022-12-29T10:53:59;12.20;99.90
13808;DHT22;40769;51.512;5.494;2022-12-29T10:56:43;12.10;99.90
13808;DHT22;40769;51.512;5.494;2022-12-29T10:59:15;12.20;99.90
13808;DHT22;40769;51.512;5.494;2022-12-29T11:07:04;12.20;99.90
13808;DHT22;40769;51.512;5.494;2022-12-29T11:09:34;12.30;99.90
13808;DHT22;40769;51.512;5.494;2022-12-29T11:15:06;12.10;99.90
13808;DHT22;40769;51.512;5.494;2022-12-29T11:17:53;12.10;99.90
13808;DHT22;40769;51.512;5.494;2022-12-29T11:20:34;12.00;99.90
13808;DHT22;40769;51.512;5.494;2022-12-29T11:23:01;12.00;99.90
13808;DHT22;40769;51.512;5.494;2022-12-29T11:25:27;12.70;99.90
13808;DHT22;40769;51.512;5.494;2022-12-29T11:28:02;11.90;99.90
13808;DHT22;40769;51.512;5.494;2022-12-29T11:30:30;11.80;99.90
13808;DHT22;40769;51.512;5.494;2022-12-29T11:32:57;11.80;99.90
13808;DHT22;40769;51.512;5.494;2022-12-29T11:38:00;11.90;99.90
13808;DHT22;40769;51.512;5.494;2022-12-29T11:40:27;12.00;99.90
13808;DHT22;40769;51.512;5.494;2022-12-29T11:42:58;12.00;99.90
13808;DHT22;40769;51.512;5.494;2022-12-29T11:45:30;12.10;99.90
13808;DHT22;40769;51.512;5.494;2022-12-29T11:48:18;12.20;99.90
13808;DHT22;40769;51.512;5.494;2022-12-29T11:50:56;12.20;99.90
13808;DHT22;40769;51.512;5.494;2022-12-29T11:53:48;12.20;99.90
13808;DHT22;40769;51.512;5.494;2022-12-29T11:56:17;12.20;99.90
13808;DHT22;40769;51.512;5.494;2022-12-29T11:58:45;12.30;99.90
13808;DHT22;40769;51.512;5.494;2022-12-29T12:01:50;12.30;99.90
13808;DHT22;40769;51.512;5.494;2022-12-29T12:04:16;12.40;99.90
13808;DHT22;40769;51.512;5.494;2022-12-29T12:06:52;12.50;99.90
13808;DHT22;40769;51.512;5.494;2022-12-29T12:09:31;12.50;99.90
13808;DHT22;40769;51.512;5.494;2022-12-29T12:11:59;12.60;99.90
13808;DHT22;40769;51.512;5.494;2022-12-29T12:14:46;12.60;99.90
13808;DHT22;40769;51.512;5.494;2022-12-29T12:17:25;12.70;99.90
13808;DHT22;40769;51.512;5.494;2022-12-29T12:20:03;12.70;99.90
13808;DHT22;40769;51.512;5.494;2022-12-29T12:22:49;12.80;99.90
13808;DHT22;40769;51.512;5.494;2022-12-29T12:25:23;12.80;99.90
13808;DHT22;40769;51.512;5.494;2022-12-29T12:28:10;12.90;99.90
13808;DHT22;40769;51.512;5.494;2022-12-29T12:30:47;12.90;99.90
13808;DHT22;40769;51.512;5.494;2022-12-29T12:33:24;12.90;99.90
13808;DHT22;40769;51.512;5.494;2022-12-29T12:39:32;13.00;99.90
13808;DHT22;40769;51.512;5.494;2022-12-29T12:45:42;13.90;99.90
13808;DHT22;40769;51.512;5.494;2022-12-29T12:53:33;13.20;99.90
13808;DHT22;40769;51.512;5.494;2022-12-29T12:56:43;13.30;99.90
13808;DHT22;40769;51.512;5.494;2022-12-29T12:59:32;13.30;99.90
13808;DHT22;40769;51.512;5.494;2022-12-29T13:02:06;13.40;99.90
13808;DHT22;40769;51.512;5.494;2022-12-29T13:04:58;13.40;99.90
13808;DHT22;40769;51.512;5.494;2022-12-29T13:07:31;13.40;99.90
13808;DHT22;40769;51.512;5.494;2022-12-29T13:10:18;13.50;99.90
13808;DHT22;40769;51.512;5.494;2022-12-29T13:15:46;13.50;99.90
13808;DHT22;40769;51.512;5.494;2022-12-29T13:18:30;13.50;99.90
13808;DHT22;40769;51.512;5.494;2022-12-29T13:24:11;13.40;99.90
13808;DHT22;40769;51.512;5.494;2022-12-29T13:26:43;13.40;99.90
13808;DHT22;40769;51.512;5.494;2022-12-29T13:29:32;13.30;99.90
13808;DHT22;40769;51.512;5.494;2022-12-29T13:34:48;13.10;99.90
13808;DHT22;40769;51.512;5.494;2022-12-29T13:37:19;12.90;99.90
13808;DHT22;40769;51.512;5.494;2022-12-29T13:39:52;12.70;99.90
13808;DHT22;40769;51.512;5.494;2022-12-29T13:42:20;12.50;99.90
13808;DHT22;40769;51.512;5.494;2022-12-29T13:44:54;12.40;99.90
13808;DHT22;40769;51.512;5.494;2022-12-29T13:50:36;12.10;99.90
13808;DHT22;40769;51.512;5.494;2022-12-29T13:53:19;11.30;99.90
13808;DHT22;40769;51.512;5.494;2022-12-29T13:56:07;12.00;99.90
13808;DHT22;40769;51.512;5.494;2022-12-29T14:01:12;11.80;99.90
13808;DHT22;40769;51.512;5.494;2022-12-29T14:03:49;11.80;99.90
13808;DHT22;40769;51.512;5.494;2022-12-29T14:08:46;11.60;99.90
13808;DHT22;40769;51.512;5.494;2022-12-29T14:11:14;11.60;99.90
13808;DHT22;40769;51.512;5.494;2022-12-29T14:13:44;11.60;99.90
13808;DHT22;40769;51.512;5.494;2022-12-29T14:16:26;11.60;99.90
13808;DHT22;40769;51.512;5.494;2022-12-29T14:18:52;11.60;99.90
13808;DHT22;40769;51.512;5.494;2022-12-29T14:21:21;11.60;99.90
13808;DHT22;40769;51.512;5.494;2022-12-29T14:23:53;11.60;99.90
13808;DHT22;40769;51.512;5.494;2022-12-29T14:28:54;11.70;99.90
13808;DHT22;40769;51.512;5.494;2022-12-29T14:37:01;11.80;99.90
13808;DHT22;40769;51.512;5.494;2022-12-29T14:39:42;11.80;99.90
13808;DHT22;40769;51.512;5.494;2022-12-29T14:44:57;11.80;99.90
13808;DHT22;40769;51.512;5.494;2022-12-29T14:47:35;11.80;99.90
13808;DHT22;40769;51.512;5.494;2022-12-29T14:50:13;11.80;99.90
13808;DHT22;40769;51.512;5.494;2022-12-29T14:53:00;11.90;99.90
13808;DHT22;40769;51.512;5.494;2022-12-29T14:55:46;11.90;99.90
13808;DHT22;40769;51.512;5.494;2022-12-29T15:00:47;12.00;99.90
13808;DHT22;40769;51.512;5.494;2022-12-29T15:03:30;12.00;99.90
13808;DHT22;40769;51.512;5.494;2022-12-29T15:06:11;12.00;99.90
13808;DHT22;40769;51.512;5.494;2022-12-29T15:08:44;12.00;99.90
13808;DHT22;40769;51.512;5.494;2022-12-29T15:11:23;12.10;99.90
13808;DHT22;40769;51.512;5.494;2022-12-29T15:13:49;12.20;99.90
13808;DHT22;40769;51.512;5.494;2022-12-29T15:18:52;12.00;99.90
13808;DHT22;40769;51.512;5.494;2022-12-29T15:21:25;12.00;99.90
13808;DHT22;40769;51.512;5.494;2022-12-29T15:23:52;12.10;99.90
13808;DHT22;40769;51.512;5.494;2022-12-29T15:26:18;12.00;99.90
13808;DHT22;40769;51.512;5.494;2022-12-29T15:28:50;12.00;99.90
13808;DHT22;40769;51.512;5.494;2022-12-29T15:31:24;11.90;99.90
13808;DHT22;40769;51.512;5.494;2022-12-29T15:33:52;11.90;99.90
13808;DHT22;40769;51.512;5.494;2022-12-29T15:36:25;11.90;99.90
13808;DHT22;40769;51.512;5.494;2022-12-29T15:38:51;11.80;99.90
13808;DHT22;40769;51.512;5.494;2022-12-29T15:46:29;11.70;99.90
13808;DHT22;40769;51.512;5.494;2022-12-29T15:48:55;11.60;99.90
13808;DHT22;40769;51.512;5.494;2022-12-29T15:51:31;11.60;99.90
13808;DHT22;40769;51.512;5.494;2022-12-29T15:53:58;11.50;99.90
13808;DHT22;40769;51.512;5.494;2022-12-29T15:56:24;11.60;99.90
13808;DHT22;40769;51.512;5.494;2022-12-29T15:58:53;11.60;99.90
13808;DHT22;40769;51.512;5.494;2022-12-29T16:01:35;11.60;99.90
13808;DHT22;40769;51.512;5.494;2022-12-29T16:04:06;11.60;99.90
13808;DHT22;40769;51.512;5.494;2022-12-29T16:06:38;11.50;99.90
13808;DHT22;40769;51.512;5.494;2022-12-29T16:09:06;11.50;99.90
13808;DHT22;40769;51.512;5.494;2022-12-29T16:11:40;11.60;99.90
13808;DHT22;40769;51.512;5.494;2022-12-29T16:14:10;11.40;99.90
13808;DHT22;40769;51.512;5.494;2022-12-29T16:16:40;11.50;99.90
13808;DHT22;40769;51.512;5.494;2022-12-29T16:19:35;11.40;99.90
13808;DHT22;40769;51.512;5.494;2022-12-29T16:22:01;11.30;99.90
13808;DHT22;40769;51.512;5.494;2022-12-29T16:24:31;11.30;99.90
13808;DHT22;40769;51.512;5.494;2022-12-29T16:27:14;11.30;99.90
13808;DHT22;40769;51.512;5.494;2022-12-29T16:29:42;11.20;99.90
13808;DHT22;40769;51.512;5.494;2022-12-29T16:32:29;11.10;99.90
13808;DHT22;40769;51.512;5.494;2022-12-29T16:35:18;11.20;99.90
13808;DHT22;40769;51.512;5.494;2022-12-29T16:37:44;11.10;99.90
13808;DHT22;40769;51.512;5.494;2022-12-29T16:40:30;11.00;99.90
13808;DHT22;40769;51.512;5.494;2022-12-29T16:43:01;11.00;99.90
13808;DHT22;40769;51.512;5.494;2022-12-29T16:48:27;11.00;99.90
13808;DHT22;40769;51.512;5.494;2022-12-29T16:51:06;10.90;99.90
13808;DHT22;40769;51.512;5.494;2022-12-29T16:53:38;10.90;99.90
13808;DHT22;40769;51.512;5.494;2022-12-29T16:56:13;11.00;99.90
13808;DHT22;40769;51.512;5.494;2022-12-29T16:58:43;10.90;99.90
13808;DHT22;40769;51.512;5.494;2022-12-29T17:01:11;10.90;99.90
13808;DHT22;40769;51.512;5.494;2022-12-29T17:03:43;10.90;99.90
13808;DHT22;40769;51.512;5.494;2022-12-29T17:06:19;10.90;99.90
13808;DHT22;40769;51.512;5.494;2022-12-29T17:08:45;10.90;99.90
13808;DHT22;40769;51.512;5.494;2022-12-29T17:11:23;10.90;99.90
13808;DHT22;40769;51.512;5.494;2022-12-29T17:16:59;10.80;99.90
13808;DHT22;40769;51.512;5.494;2022-12-29T17:19:33;10.80;99.90
13808;DHT22;40769;51.512;5.494;2022-12-29T17:22:00;10.70;99.90
13808;DHT22;40769;51.512;5.494;2022-12-29T17:24:26;10.70;99.90
13808;DHT22;40769;51.512;5.494;2022-12-29T17:26:56;10.70;99.90
13808;DHT22;40769;51.512;5.494;2022-12-29T17:29:38;10.60;99.90
13808;DHT22;40769;51.512;5.494;2022-12-29T17:32:08;10.60;99.90
13808;DHT22;40769;51.512;5.494;2022-12-29T17:34:34;10.60;99.90
13808;DHT22;40769;51.512;5.494;2022-12-29T17:37:00;10.50;99.90
13808;DHT22;40769;51.512;5.494;2022-12-29T17:39:26;10.50;99.90
13808;DHT22;40769;51.512;5.494;2022-12-29T17:41:51;10.50;99.90
13808;DHT22;40769;51.512;5.494;2022-12-29T17:44:19;10.40;99.90
13808;DHT22;40769;51.512;5.494;2022-12-29T17:46:47;10.40;99.90
13808;DHT22;40769;51.512;5.494;2022-12-29T17:49:14;10.40;99.90
13808;DHT22;40769;51.512;5.494;2022-12-29T17:51:41;10.40;99.90
13808;DHT22;40769;51.512;5.494;2022-12-29T17:54:19;10.30;99.90
13808;DHT22;40769;51.512;5.494;2022-12-29T17:56:46;10.30;99.90
13808;DHT22;40769;51.512;5.494;2022-12-29T17:59:12;10.30;99.90